Time;durP1;ratioP1;P1;durP2;ratioP2;P2;SDS_P1;SDS_P2;PMS_P1;PMS_P2;Temp;Humidity;BMP_temperature;BMP_pressure;BME280_temperature;BME280_humidity;BME280_pressure;Samples;Min_cycle;Max_cycle;Signal;HPM_P1;HPM_P2
2021/12/27 00:03:14;;;;;;;67.80;50.47;;;;;;;;;;5010459;28;20111;-62
2021/12/27 00:05:40;;;;;;;66.93;51.33;;;;;;;;;;5013297;28;20092;-61
2021/12/27 00:08:07;;;;;;;63.13;49.43;;;;;;;;;;5011704;28;20057;-61
2021/12/27 00:10:33;;;;;;;66.50;52.23;;;;;;;;;;5013264;28;20026;-61
2021/12/27 00:12:59;;;;;;;64.90;48.90;;;;;;;;;;5013287;28;20087;-61
2021/12/27 00:15:26;;;;;;;68.57;50.07;;;;;;;;;;5013553;28;20029;-62
2021/12/27 00:17:52;;;;;;;68.30;51.87;;;;;;;;;;5011975;28;20042;-61
2021/12/27 00:20:19;;;;;;;62.60;49.70;;;;;;;;;;5013454;28;20056;-61
2021/12/27 00:22:46;;;;;;;64.83;50.30;;;;;;;;;;5010858;28;20053;-61
2021/12/27 00:25:12;;;;;;;62.03;49.60;;;;;;;;;;5009366;28;20026;-61
2021/12/27 00:27:38;;;;;;;65.43;49.93;;;;;;;;;;5016972;28;20038;-62
2021/12/27 00:30:05;;;;;;;65.97;50.47;;;;;;;;;;5012656;28;20046;-61
2021/12/27 00:32:33;;;;;;;65.70;50.63;;;;;;;;;;5011709;28;20026;-61
2021/12/27 00:35:00;;;;;;;66.50;49.93;;;;;;;;;;5013828;28;20018;-61
2021/12/27 00:37:26;;;;;;;67.27;52.13;;;;;;;;;;5011555;28;20487;-61
2021/12/27 00:39:52;;;;;;;67.17;49.87;;;;;;;;;;4995179;28;20407;-62
2021/12/27 00:42:18;;;;;;;66.77;50.90;;;;;;;;;;5013325;28;20036;-61
2021/12/27 00:44:44;;;;;;;67.50;51.53;;;;;;;;;;4994856;28;20033;-61
2021/12/27 00:47:10;;;;;;;67.47;51.00;;;;;;;;;;5000093;28;20396;-61
2021/12/27 00:49:36;;;;;;;68.80;51.67;;;;;;;;;;5011621;28;20030;-61
2021/12/27 00:52:02;;;;;;;65.33;50.77;;;;;;;;;;5012800;28;20033;-61
2021/12/27 00:54:28;;;;;;;67.33;50.20;;;;;;;;;;5011720;28;20037;-61
2021/12/27 00:56:54;;;;;;;65.43;50.13;;;;;;;;;;5011415;28;20228;-62
2021/12/27 00:59:20;;;;;;;69.20;53.00;;;;;;;;;;5006571;28;20100;-61
2021/12/27 01:01:48;;;;;;;65.43;50.13;;;;;;;;;;5012988;28;20531;-61
2021/12/27 01:04:14;;;;;;;68.43;51.67;;;;;;;;;;4993124;28;20042;-61
2021/12/27 01:06:40;;;;;;;65.70;50.07;;;;;;;;;;5012338;28;20037;-61
2021/12/27 01:09:06;;;;;;;67.70;49.67;;;;;;;;;;5011140;28;20033;-61
2021/12/27 01:14:11;;;;;;;66.53;50.33;;;;;;;;;;5012786;28;20555;-61
2021/12/27 01:16:38;;;;;;;67.60;49.90;;;;;;;;;;5013895;28;20025;-61
2021/12/27 01:19:06;;;;;;;69.00;51.33;;;;;;;;;;5010951;28;20040;-61
2021/12/27 01:21:32;;;;;;;68.13;53.17;;;;;;;;;;5015698;28;20022;-61
2021/12/27 01:23:58;;;;;;;63.83;49.87;;;;;;;;;;5012502;28;20069;-61
2021/12/27 01:26:25;;;;;;;69.77;52.37;;;;;;;;;;5014371;28;20030;-61
2021/12/27 01:28:52;;;;;;;67.03;51.37;;;;;;;;;;5016450;28;20411;-62
2021/12/27 01:31:18;;;;;;;70.00;52.53;;;;;;;;;;5005993;28;20102;-62
2021/12/27 01:33:45;;;;;;;68.50;52.37;;;;;;;;;;5009707;28;20034;-61
2021/12/27 01:36:12;;;;;;;73.20;53.03;;;;;;;;;;5020953;28;20108;-62
2021/12/27 01:38:40;;;;;;;68.40;53.53;;;;;;;;;;5014290;28;20084;-61
2021/12/27 01:41:06;;;;;;;69.23;52.27;;;;;;;;;;5007436;28;20045;-61
2021/12/27 01:43:33;;;;;;;71.17;54.40;;;;;;;;;;5005206;28;20436;-61
2021/12/27 01:46:01;;;;;;;68.50;52.97;;;;;;;;;;5009052;28;20033;-61
2021/12/27 01:48:31;;;;;;;69.20;52.53;;;;;;;;;;5011686;28;20038;-61
2021/12/27 01:50:59;;;;;;;68.60;53.17;;;;;;;;;;5017549;28;20017;-62
2021/12/27 01:53:26;;;;;;;68.97;54.70;;;;;;;;;;5014466;28;20057;-62
2021/12/27 01:55:53;;;;;;;69.43;54.07;;;;;;;;;;5012262;28;20054;-62
2021/12/27 01:58:20;;;;;;;69.40;53.37;;;;;;;;;;5014811;28;20037;-61
2021/12/27 02:00:49;;;;;;;69.17;53.43;;;;;;;;;;5016067;28;20057;-61
2021/12/27 02:03:16;;;;;;;73.20;55.43;;;;;;;;;;5015587;28;20049;-61
2021/12/27 02:05:42;;;;;;;68.57;53.83;;;;;;;;;;5005156;28;20373;-62
2021/12/27 02:08:09;;;;;;;71.37;54.37;;;;;;;;;;5014392;28;20030;-62
2021/12/27 02:10:35;;;;;;;70.77;55.47;;;;;;;;;;5014076;28;20407;-62
2021/12/27 02:13:01;;;;;;;66.87;53.00;;;;;;;;;;5015848;28;20044;-62
2021/12/27 02:15:27;;;;;;;73.10;55.47;;;;;;;;;;5015208;28;20076;-61
2021/12/27 02:17:54;;;;;;;70.37;53.83;;;;;;;;;;4997791;28;20030;-61
2021/12/27 02:20:25;;;;;;;71.17;53.50;;;;;;;;;;4997685;28;20026;-61
2021/12/27 02:22:54;;;;;;;67.03;51.90;;;;;;;;;;5014926;28;20037;-61
2021/12/27 02:25:20;;;;;;;73.70;55.23;;;;;;;;;;5009277;28;20038;-62
2021/12/27 02:37:23;;;;;;;71.60;55.65;;;;;;;;;;4988594;28;20061;-60
2021/12/27 02:39:49;;;;;;;69.40;53.97;;;;;;;;;;5010979;28;20120;-61
2021/12/27 02:42:19;;;;;;;71.80;55.60;;;;;;;;;;5013222;28;20087;-61
2021/12/27 02:44:45;;;;;;;71.70;55.43;;;;;;;;;;5012316;28;20124;-61
2021/12/27 02:47:12;;;;;;;71.00;55.97;;;;;;;;;;4994829;28;20389;-60
2021/12/27 02:49:38;;;;;;;66.60;53.13;;;;;;;;;;5012922;28;20053;-60
2021/12/27 02:52:04;;;;;;;67.03;52.60;;;;;;;;;;5012689;28;20053;-60
2021/12/27 02:54:30;;;;;;;74.47;54.47;;;;;;;;;;5013236;28;20100;-60
2021/12/27 02:56:56;;;;;;;68.63;53.20;;;;;;;;;;5014254;28;20060;-60
2021/12/27 02:59:22;;;;;;;67.27;53.00;;;;;;;;;;5014120;28;20026;-60
2021/12/27 03:01:48;;;;;;;66.97;52.23;;;;;;;;;;5011742;28;20030;-61
2021/12/27 03:04:14;;;;;;;68.27;53.97;;;;;;;;;;5010857;28;20057;-61
2021/12/27 03:06:40;;;;;;;72.10;54.83;;;;;;;;;;5012084;28;20033;-61
2021/12/27 03:09:09;;;;;;;68.43;53.47;;;;;;;;;;5001992;28;20033;-60
2021/12/27 03:11:36;;;;;;;67.57;52.90;;;;;;;;;;5013788;28;20034;-61
2021/12/27 03:14:02;;;;;;;67.90;53.23;;;;;;;;;;5013255;28;20387;-60
2021/12/27 03:22:37;;;;;;;69.37;53.20;;;;;;;;;;5003199;28;20041;-60
2021/12/27 03:25:04;;;;;;;68.67;53.53;;;;;;;;;;5009180;28;20125;-61
2021/12/27 03:27:30;;;;;;;69.77;54.10;;;;;;;;;;5019407;28;20439;-60
2021/12/27 03:29:56;;;;;;;70.17;55.43;;;;;;;;;;5014356;28;20184;-61
2021/12/27 03:32:23;;;;;;;69.63;54.53;;;;;;;;;;5013233;28;20034;-61
2021/12/27 03:35:03;;;;;;;68.67;53.00;;;;;;;;;;5001252;28;20030;-60
2021/12/27 03:37:30;;;;;;;68.20;53.20;;;;;;;;;;5024258;28;20100;-60
2021/12/27 03:39:56;;;;;;;69.73;53.73;;;;;;;;;;5009062;28;20033;-61
2021/12/27 03:42:22;;;;;;;78.13;56.17;;;;;;;;;;5012557;28;20026;-60
2021/12/27 03:44:48;;;;;;;71.47;55.23;;;;;;;;;;5014135;28;20034;-60
2021/12/27 03:47:14;;;;;;;75.60;56.33;;;;;;;;;;4997944;28;20076;-60
2021/12/27 03:49:41;;;;;;;69.80;55.03;;;;;;;;;;4996451;28;20030;-61
2021/12/27 03:52:07;;;;;;;73.97;55.47;;;;;;;;;;5010232;28;20038;-60
2021/12/27 03:54:33;;;;;;;71.60;54.67;;;;;;;;;;4999262;28;20498;-61
2021/12/27 03:56:59;;;;;;;71.73;55.97;;;;;;;;;;5012906;28;20034;-61
2021/12/27 04:02:10;;;;;;;71.35;55.20;;;;;;;;;;5013061;28;20104;-61
2021/12/27 04:04:36;;;;;;;75.10;55.90;;;;;;;;;;5015103;28;20133;-61
2021/12/27 04:07:03;;;;;;;74.00;55.90;;;;;;;;;;4998827;28;20034;-61
2021/12/27 04:09:29;;;;;;;67.67;55.27;;;;;;;;;;5011947;28;20034;-61
2021/12/27 04:11:55;;;;;;;78.00;57.73;;;;;;;;;;5010155;28;20029;-61
2021/12/27 04:14:21;;;;;;;73.47;55.97;;;;;;;;;;5015226;28;20497;-61
2021/12/27 04:16:47;;;;;;;75.30;57.50;;;;;;;;;;5012428;28;20030;-61
2021/12/27 04:19:14;;;;;;;71.83;55.43;;;;;;;;;;5011155;28;20417;-61
2021/12/27 04:21:40;;;;;;;76.03;59.30;;;;;;;;;;5004897;28;20030;-61
2021/12/27 04:24:07;;;;;;;75.47;55.67;;;;;;;;;;4993155;28;20519;-61
2021/12/27 04:26:33;;;;;;;75.80;56.50;;;;;;;;;;5011806;28;20531;-61
2021/12/27 04:28:59;;;;;;;73.90;57.37;;;;;;;;;;5003727;28;20022;-62
2021/12/27 04:31:25;;;;;;;72.30;56.73;;;;;;;;;;5012730;28;20033;-61
2021/12/27 04:33:51;;;;;;;76.60;56.93;;;;;;;;;;5012726;28;20040;-61
2021/12/27 04:36:17;;;;;;;74.07;56.33;;;;;;;;;;5013156;28;20034;-61
2021/12/27 04:38:43;;;;;;;74.83;56.60;;;;;;;;;;5011255;28;20045;-61
2021/12/27 04:41:10;;;;;;;72.27;56.30;;;;;;;;;;5012821;28;20029;-60
2021/12/27 04:43:36;;;;;;;73.97;56.90;;;;;;;;;;5011717;28;20069;-61
2021/12/27 04:46:03;;;;;;;74.67;58.00;;;;;;;;;;5011740;28;20554;-61
2021/12/27 04:48:29;;;;;;;72.57;56.57;;;;;;;;;;5012762;28;20022;-61
2021/12/27 04:50:55;;;;;;;79.47;59.20;;;;;;;;;;5008861;28;20030;-61
2021/12/27 04:53:21;;;;;;;74.50;55.77;;;;;;;;;;5011920;28;20030;-61
2021/12/27 04:55:47;;;;;;;74.43;56.13;;;;;;;;;;5013061;28;20510;-61
2021/12/27 04:58:16;;;;;;;74.30;54.67;;;;;;;;;;5011456;28;20018;-61
2021/12/27 05:00:42;;;;;;;70.50;54.60;;;;;;;;;;4997936;28;20372;-61
2021/12/27 05:03:08;;;;;;;71.73;55.30;;;;;;;;;;5011259;28;20037;-61
2021/12/27 05:05:34;;;;;;;73.70;56.73;;;;;;;;;;5012066;28;20026;-61
2021/12/27 05:08:01;;;;;;;74.13;57.43;;;;;;;;;;5011580;28;20030;-61
2021/12/27 05:10:28;;;;;;;73.90;56.80;;;;;;;;;;5012432;28;20034;-62
2021/12/27 05:12:54;;;;;;;76.60;56.23;;;;;;;;;;5011926;28;20038;-62
2021/12/27 05:15:20;;;;;;;74.70;57.40;;;;;;;;;;5018925;28;20388;-62
2021/12/27 05:17:46;;;;;;;72.73;54.70;;;;;;;;;;5011523;28;20119;-61
2021/12/27 05:20:12;;;;;;;71.17;55.17;;;;;;;;;;4995989;28;20076;-61
2021/12/27 05:22:39;;;;;;;72.37;56.50;;;;;;;;;;5011293;28;20049;-62
2021/12/27 05:25:05;;;;;;;74.50;56.70;;;;;;;;;;5013288;28;20033;-61
2021/12/27 05:27:31;;;;;;;75.93;57.60;;;;;;;;;;5010813;28;20033;-61
2021/12/27 05:29:58;;;;;;;75.60;56.57;;;;;;;;;;5012468;28;20032;-61
2021/12/27 05:32:24;;;;;;;76.80;58.53;;;;;;;;;;5011109;28;20017;-61
2021/12/27 05:34:49;;;;;;;73.07;56.83;;;;;;;;;;5011402;28;20118;-61
2021/12/27 05:37:15;;;;;;;74.57;57.33;;;;;;;;;;5022718;28;20032;-61
2021/12/27 05:39:42;;;;;;;79.77;58.60;;;;;;;;;;5011660;28;20029;-61
2021/12/27 05:42:08;;;;;;;74.37;58.37;;;;;;;;;;5011751;28;20054;-61
2021/12/27 05:44:35;;;;;;;76.80;58.63;;;;;;;;;;5012131;28;20076;-61
2021/12/27 05:47:01;;;;;;;78.57;58.90;;;;;;;;;;5013093;28;20080;-61
2021/12/27 05:49:27;;;;;;;75.80;56.30;;;;;;;;;;5016047;28;20472;-61
2021/12/27 05:51:53;;;;;;;73.27;57.07;;;;;;;;;;5011203;28;20033;-61
2021/12/27 05:54:20;;;;;;;71.20;53.93;;;;;;;;;;5011678;28;20034;-61
2021/12/27 05:56:47;;;;;;;68.63;52.13;;;;;;;;;;5007009;28;20023;-61
2021/12/27 05:59:13;;;;;;;75.03;56.70;;;;;;;;;;5010840;28;20271;-61
2021/12/27 06:01:39;;;;;;;70.77;57.63;;;;;;;;;;5011138;28;20587;-61
2021/12/27 06:04:06;;;;;;;71.00;56.23;;;;;;;;;;5012803;28;20044;-61
2021/12/27 06:06:32;;;;;;;70.10;56.13;;;;;;;;;;5014890;28;20038;-61
2021/12/27 06:08:58;;;;;;;72.57;57.13;;;;;;;;;;5011999;28;20119;-61
2021/12/27 06:11:24;;;;;;;76.63;58.17;;;;;;;;;;5015234;28;20034;-61
2021/12/27 06:13:50;;;;;;;73.77;57.67;;;;;;;;;;5014358;28;20046;-61
2021/12/27 06:16:16;;;;;;;73.20;56.63;;;;;;;;;;5014915;28;20030;-61
2021/12/27 06:18:42;;;;;;;75.17;57.80;;;;;;;;;;5013456;28;20057;-61
2021/12/27 06:21:08;;;;;;;72.13;56.17;;;;;;;;;;5004957;28;20018;-61
2021/12/27 06:23:34;;;;;;;71.60;55.07;;;;;;;;;;5012080;28;20038;-61
2021/12/27 06:26:00;;;;;;;71.50;55.47;;;;;;;;;;5000875;28;20018;-61
2021/12/27 06:28:28;;;;;;;70.43;55.10;;;;;;;;;;4998858;28;20032;-61
2021/12/27 06:30:54;;;;;;;69.20;55.90;;;;;;;;;;5015632;28;20076;-60
2021/12/27 06:33:20;;;;;;;71.30;56.73;;;;;;;;;;5014621;28;20080;-60
2021/12/27 06:35:46;;;;;;;71.60;55.87;;;;;;;;;;5015307;28;20025;-61
2021/12/27 06:38:12;;;;;;;73.93;57.53;;;;;;;;;;5013891;28;20046;-61
2021/12/27 06:40:38;;;;;;;71.27;57.03;;;;;;;;;;5025535;28;20087;-61
2021/12/27 06:43:04;;;;;;;76.23;58.40;;;;;;;;;;4997390;28;20044;-61
2021/12/27 06:45:30;;;;;;;74.63;56.97;;;;;;;;;;5012241;28;20105;-61
2021/12/27 06:47:56;;;;;;;72.73;57.70;;;;;;;;;;5010022;28;20052;-61
2021/12/27 06:50:23;;;;;;;76.87;57.10;;;;;;;;;;5012836;28;20042;-61
2021/12/27 06:52:49;;;;;;;73.33;58.63;;;;;;;;;;5014611;28;20037;-61
2021/12/27 06:55:15;;;;;;;75.03;57.83;;;;;;;;;;5019177;28;20048;-61
2021/12/27 06:57:42;;;;;;;73.07;56.73;;;;;;;;;;5015273;28;20400;-61
2021/12/27 07:00:10;;;;;;;72.10;55.27;;;;;;;;;;4995937;28;20034;-61
2021/12/27 07:02:36;;;;;;;73.90;55.63;;;;;;;;;;5018460;28;20030;-61
2021/12/27 07:05:02;;;;;;;72.47;55.90;;;;;;;;;;5028296;28;20101;-61
2021/12/27 07:07:28;;;;;;;69.80;53.93;;;;;;;;;;5024588;28;20054;-61
2021/12/27 07:09:54;;;;;;;70.70;53.33;;;;;;;;;;5008836;28;20116;-61
2021/12/27 07:12:20;;;;;;;69.57;53.13;;;;;;;;;;5001009;28;20153;-61
2021/12/27 07:14:48;;;;;;;69.50;51.70;;;;;;;;;;5012624;28;20096;-61
2021/12/27 07:17:14;;;;;;;71.73;54.30;;;;;;;;;;5011964;28;20112;-61
2021/12/27 07:19:40;;;;;;;71.23;53.63;;;;;;;;;;5009687;28;20108;-62
2021/12/27 07:22:07;;;;;;;68.27;54.23;;;;;;;;;;5003796;28;20578;-61
2021/12/27 07:24:33;;;;;;;69.47;53.43;;;;;;;;;;5004456;28;20057;-60
2021/12/27 07:26:59;;;;;;;69.57;53.10;;;;;;;;;;5003213;28;20058;-60
2021/12/27 07:29:25;;;;;;;69.43;54.97;;;;;;;;;;5011305;28;20065;-61
2021/12/27 07:31:51;;;;;;;66.27;52.23;;;;;;;;;;5008274;28;20038;-60
2021/12/27 07:34:19;;;;;;;73.07;53.63;;;;;;;;;;5008540;28;20529;-61
2021/12/27 07:36:45;;;;;;;68.30;53.33;;;;;;;;;;5012821;28;20033;-61
2021/12/27 07:39:12;;;;;;;68.53;53.27;;;;;;;;;;4996732;28;20557;-60
2021/12/27 07:41:38;;;;;;;67.43;52.43;;;;;;;;;;5010285;28;20022;-60
2021/12/27 07:44:04;;;;;;;65.67;53.83;;;;;;;;;;5012796;28;20037;-61
2021/12/27 07:46:30;;;;;;;71.30;53.47;;;;;;;;;;5012504;28;20038;-61
2021/12/27 07:48:56;;;;;;;67.03;51.33;;;;;;;;;;5005158;28;20503;-61
2021/12/27 07:51:22;;;;;;;65.80;50.20;;;;;;;;;;5008269;28;20069;-52
2021/12/27 07:53:48;;;;;;;63.67;48.77;;;;;;;;;;4999244;28;20384;-49
2021/12/27 07:56:14;;;;;;;63.87;49.37;;;;;;;;;;5012384;28;20029;-57
2021/12/27 07:58:40;;;;;;;62.60;50.10;;;;;;;;;;5007875;28;20030;-51
2021/12/27 08:01:06;;;;;;;66.10;50.93;;;;;;;;;;5006348;28;20372;-61
2021/12/27 08:03:32;;;;;;;66.60;48.40;;;;;;;;;;5013788;28;20045;-60
2021/12/27 08:05:58;;;;;;;62.90;46.80;;;;;;;;;;5012778;28;20040;-61
2021/12/27 08:08:25;;;;;;;60.77;45.27;;;;;;;;;;5013517;28;20102;-61
2021/12/27 08:10:51;;;;;;;61.17;46.43;;;;;;;;;;5013523;28;20118;-62
2021/12/27 08:13:17;;;;;;;61.30;44.57;;;;;;;;;;4997100;28;20073;-61
2021/12/27 08:15:43;;;;;;;63.37;46.73;;;;;;;;;;5005550;28;20072;-61
2021/12/27 08:18:09;;;;;;;62.77;48.30;;;;;;;;;;5012012;28;20030;-62
2021/12/27 08:20:35;;;;;;;65.93;49.17;;;;;;;;;;4995722;28;20069;-62
2021/12/27 08:23:01;;;;;;;65.87;49.73;;;;;;;;;;5013377;28;20426;-62
2021/12/27 08:25:27;;;;;;;65.03;48.37;;;;;;;;;;5009295;28;20026;-62
2021/12/27 08:27:53;;;;;;;64.47;49.87;;;;;;;;;;5012388;28;20030;-62
2021/12/27 08:30:19;;;;;;;66.10;49.03;;;;;;;;;;5012088;28;20030;-62
2021/12/27 08:32:46;;;;;;;68.10;51.23;;;;;;;;;;5013139;28;20033;-62
2021/12/27 08:35:13;;;;;;;72.00;51.47;;;;;;;;;;5012964;28;20145;-61
2021/12/27 08:37:40;;;;;;;67.53;51.53;;;;;;;;;;5013393;28;20050;-61
2021/12/27 08:40:07;;;;;;;60.50;50.67;;;;;;;;;;5000156;28;20030;-61
2021/12/27 08:42:33;;;;;;;62.40;50.47;;;;;;;;;;5012496;28;20026;-61
2021/12/27 08:44:59;;;;;;;64.80;49.33;;;;;;;;;;4994522;28;20076;-61
2021/12/27 08:47:25;;;;;;;61.17;48.73;;;;;;;;;;5008010;28;20033;-62
2021/12/27 08:49:51;;;;;;;58.47;49.73;;;;;;;;;;5009615;28;20025;-62
2021/12/27 08:52:17;;;;;;;57.40;46.97;;;;;;;;;;5015690;28;20026;-62
2021/12/27 08:54:43;;;;;;;54.07;43.17;;;;;;;;;;5012665;28;20475;-62
2021/12/27 08:57:09;;;;;;;58.77;46.50;;;;;;;;;;5014572;28;20381;-62
2021/12/27 08:59:38;;;;;;;57.60;46.03;;;;;;;;;;5013020;28;20030;-62
2021/12/27 09:02:05;;;;;;;59.10;45.37;;;;;;;;;;5011481;28;20030;-61
2021/12/27 09:04:32;;;;;;;63.17;48.87;;;;;;;;;;5012180;28;20049;-61
2021/12/27 09:06:58;;;;;;;62.30;49.30;;;;;;;;;;5010868;28;20049;-63
2021/12/27 09:09:24;;;;;;;63.27;49.67;;;;;;;;;;5011482;28;20372;-64
2021/12/27 09:11:50;;;;;;;64.03;49.47;;;;;;;;;;5020071;28;20180;-63
2021/12/27 09:14:16;;;;;;;58.67;48.23;;;;;;;;;;5012280;28;20106;-64
2021/12/27 09:16:43;;;;;;;61.63;48.87;;;;;;;;;;5020155;28;20215;-63
2021/12/27 09:19:10;;;;;;;65.50;49.97;;;;;;;;;;5012892;28;20030;-63
2021/12/27 09:21:37;;;;;;;65.00;51.73;;;;;;;;;;5011802;28;20022;-63
2021/12/27 09:24:03;;;;;;;69.47;50.77;;;;;;;;;;5011576;28;20074;-63
2021/12/27 09:26:29;;;;;;;66.47;52.63;;;;;;;;;;5017749;28;20878;-64
2021/12/27 09:28:56;;;;;;;72.33;54.73;;;;;;;;;;5011322;28;20037;-64
2021/12/27 09:31:24;;;;;;;69.33;53.93;;;;;;;;;;5011027;28;20041;-64
2021/12/27 09:33:50;;;;;;;71.27;54.70;;;;;;;;;;5009194;28;20476;-63
2021/12/27 09:36:16;;;;;;;66.03;53.40;;;;;;;;;;5011949;28;20034;-63
2021/12/27 09:38:42;;;;;;;70.00;53.63;;;;;;;;;;5012849;28;20477;-63
2021/12/27 09:41:09;;;;;;;71.07;56.90;;;;;;;;;;5016124;28;20065;-63
2021/12/27 09:46:45;;;;;;;71.10;54.77;;;;;;;;;;5010033;28;20048;-63
2021/12/27 09:49:13;;;;;;;76.70;58.43;;;;;;;;;;5006416;28;20555;-63
2021/12/27 09:51:40;;;;;;;72.63;55.20;;;;;;;;;;4998565;28;20034;-63
2021/12/27 09:54:07;;;;;;;73.87;54.70;;;;;;;;;;5015524;28;20047;-64
2021/12/27 09:56:33;;;;;;;76.67;54.27;;;;;;;;;;5016484;28;20022;-63
2021/12/27 09:58:59;;;;;;;76.57;54.30;;;;;;;;;;5014670;28;20080;-63
2021/12/27 10:04:28;;;;;;;71.40;55.00;;;;;;;;;;5008324;28;20057;-63
2021/12/27 10:06:55;;;;;;;71.43;54.97;;;;;;;;;;5005176;28;20033;-64
2021/12/27 10:09:21;;;;;;;74.80;56.00;;;;;;;;;;5013636;28;20053;-64
2021/12/27 10:11:47;;;;;;;77.60;58.53;;;;;;;;;;5013923;28;20061;-64
2021/12/27 10:14:15;;;;;;;76.33;59.63;;;;;;;;;;5014775;28;20029;-64
2021/12/27 10:16:46;;;;;;;78.80;60.90;;;;;;;;;;5012404;28;20034;-64
2021/12/27 10:19:16;;;;;;;83.07;60.27;;;;;;;;;;5014804;28;20041;-63
2021/12/27 10:21:42;;;;;;;77.10;59.40;;;;;;;;;;5015117;28;20029;-63
2021/12/27 10:24:10;;;;;;;80.63;62.43;;;;;;;;;;5020010;28;20033;-63
2021/12/27 10:26:37;;;;;;;80.77;60.77;;;;;;;;;;5014595;28;20117;-64
2021/12/27 10:29:23;;;;;;;85.70;63.47;;;;;;;;;;5015710;28;20065;-64
2021/12/27 10:31:52;;;;;;;81.30;60.90;;;;;;;;;;4997158;28;20057;-63
2021/12/27 10:34:18;;;;;;;79.67;61.13;;;;;;;;;;5012281;28;20034;-64
2021/12/27 10:37:03;;;;;;;79.77;62.10;;;;;;;;;;5020375;28;20038;-63
2021/12/27 10:39:45;;;;;;;79.20;60.63;;;;;;;;;;5027380;28;20054;-64
2021/12/27 10:42:13;;;;;;;80.27;60.83;;;;;;;;;;5006291;28;20054;-64
2021/12/27 10:44:39;;;;;;;85.10;64.53;;;;;;;;;;5009994;28;20042;-64
2021/12/27 10:47:23;;;;;;;84.23;64.50;;;;;;;;;;5012403;28;20041;-64
2021/12/27 10:49:49;;;;;;;80.43;62.40;;;;;;;;;;5010522;28;20026;-64
2021/12/27 10:52:15;;;;;;;85.40;66.37;;;;;;;;;;5011572;28;20026;-64
2021/12/27 10:54:41;;;;;;;85.50;64.77;;;;;;;;;;5012859;28;20049;-64
2021/12/27 10:57:08;;;;;;;85.97;68.30;;;;;;;;;;5011036;28;20022;-64
2021/12/27 10:59:34;;;;;;;84.43;67.07;;;;;;;;;;5007074;28;20022;-64
2021/12/27 11:02:10;;;;;;;83.83;68.23;;;;;;;;;;5010806;28;20033;-64
2021/12/27 11:04:37;;;;;;;83.60;66.13;;;;;;;;;;5010799;28;20113;-64
2021/12/27 11:07:04;;;;;;;86.43;68.63;;;;;;;;;;5009668;28;20053;-64
2021/12/27 11:09:31;;;;;;;85.47;67.60;;;;;;;;;;5009952;28;20038;-64
2021/12/27 11:11:58;;;;;;;89.77;68.40;;;;;;;;;;5008839;28;20093;-63
2021/12/27 11:14:24;;;;;;;91.47;72.10;;;;;;;;;;5011777;28;20022;-63
2021/12/27 11:16:50;;;;;;;91.63;69.97;;;;;;;;;;5009419;28;20029;-64
2021/12/27 11:19:16;;;;;;;87.90;71.27;;;;;;;;;;5009987;28;20032;-64
2021/12/27 11:21:44;;;;;;;89.83;71.17;;;;;;;;;;5007833;28;20056;-64
2021/12/27 11:24:11;;;;;;;90.47;69.53;;;;;;;;;;5010735;28;20129;-64
2021/12/27 11:26:39;;;;;;;92.20;72.80;;;;;;;;;;4993478;28;20061;-63
2021/12/27 11:29:09;;;;;;;91.07;72.53;;;;;;;;;;5010449;28;20034;-64
2021/12/27 11:31:37;;;;;;;92.80;71.83;;;;;;;;;;5014158;28;20518;-65
2021/12/27 11:34:04;;;;;;;94.87;70.80;;;;;;;;;;5010732;28;20033;-64
2021/12/27 11:36:31;;;;;;;92.13;72.63;;;;;;;;;;5009175;28;20787;-65
2021/12/27 11:38:58;;;;;;;90.10;72.50;;;;;;;;;;5009182;28;20639;-64
2021/12/27 11:41:24;;;;;;;96.83;73.23;;;;;;;;;;4991470;28;20026;-64
2021/12/27 11:43:56;;;;;;;94.90;71.60;;;;;;;;;;5007527;28;20034;-64
2021/12/27 11:46:23;;;;;;;90.47;70.80;;;;;;;;;;5009261;28;20431;-64
2021/12/27 11:48:51;;;;;;;90.43;71.53;;;;;;;;;;5010712;28;20080;-64
2021/12/27 11:51:18;;;;;;;93.03;71.07;;;;;;;;;;5008058;28;21020;-64
2021/12/27 11:53:47;;;;;;;93.33;68.67;;;;;;;;;;4993153;28;20122;-64
2021/12/27 11:56:32;;;;;;;92.77;71.30;;;;;;;;;;5009636;28;20052;-64
2021/12/27 11:58:58;;;;;;;93.88;71.97;;;;;;;;;;5010253;28;20060;-64
2021/12/27 12:01:25;;;;;;;97.57;71.47;;;;;;;;;;5005689;28;20037;-64
2021/12/27 12:03:54;;;;;;;93.97;69.30;;;;;;;;;;5008167;28;20042;-64
2021/12/27 12:06:39;;;;;;;99.57;72.37;;;;;;;;;;5008148;28;20065;-64
2021/12/27 12:09:11;;;;;;;97.70;74.78;;;;;;;;;;5007409;28;20033;-63
2021/12/27 12:11:37;;;;;;;100.10;76.77;;;;;;;;;;5007507;28;20069;-63
2021/12/27 12:14:22;;;;;;;105.70;78.50;;;;;;;;;;5008658;28;20026;-63
2021/12/27 12:16:49;;;;;;;109.13;80.68;;;;;;;;;;5004015;28;20072;-63
2021/12/27 12:19:16;;;;;;;113.30;81.83;;;;;;;;;;5006320;28;20034;-64
2021/12/27 12:21:51;;;;;;;120.27;85.63;;;;;;;;;;5008782;28;20061;-63
2021/12/27 12:24:18;;;;;;;112.00;82.83;;;;;;;;;;5008251;28;20045;-63
2021/12/27 12:26:59;;;;;;;116.03;82.77;;;;;;;;;;4990707;28;20026;-64
2021/12/27 12:29:26;;;;;;;111.93;81.20;;;;;;;;;;5011343;28;20029;-64
2021/12/27 12:31:56;;;;;;;110.73;80.80;;;;;;;;;;5006702;28;20053;-64
2021/12/27 12:34:23;;;;;;;115.17;78.60;;;;;;;;;;5005568;28;20419;-64
2021/12/27 12:36:54;;;;;;;107.97;75.93;;;;;;;;;;5012069;28;20036;-65
2021/12/27 12:39:21;;;;;;;99.60;70.80;;;;;;;;;;5011203;28;20558;-64
2021/12/27 12:41:48;;;;;;;103.77;76.17;;;;;;;;;;4994785;28;20093;-64
2021/12/27 12:44:14;;;;;;;101.13;73.10;;;;;;;;;;5011200;28;20487;-64
2021/12/27 12:46:45;;;;;;;92.33;65.33;;;;;;;;;;5007225;28;20030;-64
2021/12/27 12:49:14;;;;;;;92.97;66.80;;;;;;;;;;5007304;28;20030;-63
2021/12/27 12:51:47;;;;;;;93.60;64.47;;;;;;;;;;5009735;28;20014;-64
2021/12/27 12:54:16;;;;;;;91.90;64.87;;;;;;;;;;5009675;28;20025;-65
2021/12/27 12:56:43;;;;;;;101.30;69.77;;;;;;;;;;4995965;28;20037;-65
2021/12/27 12:59:26;;;;;;;96.73;68.20;;;;;;;;;;4997456;28;20055;-65
2021/12/27 13:02:01;;;;;;;96.53;66.63;;;;;;;;;;5011364;28;20115;-64
2021/12/27 13:04:40;;;;;;;101.57;67.23;;;;;;;;;;4993991;28;20480;-64
2021/12/27 13:07:06;;;;;;;104.80;68.07;;;;;;;;;;5010694;28;20029;-64
2021/12/27 13:09:40;;;;;;;93.43;65.10;;;;;;;;;;5012313;28;20034;-64
2021/12/27 13:12:06;;;;;;;93.73;62.77;;;;;;;;;;5002305;28;20430;-63
2021/12/27 13:14:32;;;;;;;94.97;64.03;;;;;;;;;;4998547;28;20033;-63
2021/12/27 13:17:14;;;;;;;95.57;64.70;;;;;;;;;;5014703;28;20025;-63
2021/12/27 13:19:59;;;;;;;101.20;70.83;;;;;;;;;;5016047;28;20546;-63
2021/12/27 13:22:57;;;;;;;105.47;71.90;;;;;;;;;;4995980;28;20476;-63
2021/12/27 13:25:31;;;;;;;99.40;68.60;;;;;;;;;;4973639;28;20046;-62
2021/12/27 13:28:09;;;;;;;106.53;69.10;;;;;;;;;;5013879;28;20097;-63
2021/12/27 13:30:45;;;;;;;106.13;68.67;;;;;;;;;;5015718;28;20205;-64
2021/12/27 13:33:11;;;;;;;109.47;72.83;;;;;;;;;;5014004;28;20037;-63
2021/12/27 13:35:37;;;;;;;104.77;69.17;;;;;;;;;;5014274;28;20112;-63
2021/12/27 13:38:03;;;;;;;102.93;68.67;;;;;;;;;;5015259;28;20030;-63
2021/12/27 13:40:29;;;;;;;110.07;74.30;;;;;;;;;;5015608;28;20037;-63
2021/12/27 13:43:02;;;;;;;110.03;75.33;;;;;;;;;;5015043;28;20091;-63
2021/12/27 13:45:39;;;;;;;110.57;76.47;;;;;;;;;;5013152;28;20068;-63
2021/12/27 13:48:05;;;;;;;108.03;74.97;;;;;;;;;;5009278;28;20125;-63
2021/12/27 13:50:32;;;;;;;111.67;72.53;;;;;;;;;;5016012;28;20038;-63
2021/12/27 13:52:59;;;;;;;107.17;72.37;;;;;;;;;;5020523;28;20191;-60
2021/12/27 13:55:27;;;;;;;103.07;72.43;;;;;;;;;;5029944;28;20436;-63
2021/12/27 13:57:53;;;;;;;106.97;71.17;;;;;;;;;;4996367;28;20140;-63
2021/12/27 14:00:29;;;;;;;99.47;68.33;;;;;;;;;;4997021;28;20125;-64
2021/12/27 14:02:55;;;;;;;98.70;65.23;;;;;;;;;;5014005;28;20030;-63
2021/12/27 14:05:28;;;;;;;97.10;65.53;;;;;;;;;;5014313;28;20034;-63
2021/12/27 14:08:07;;;;;;;101.47;69.57;;;;;;;;;;5013362;28;20041;-63
2021/12/27 14:10:33;;;;;;;105.87;74.27;;;;;;;;;;5014581;28;20365;-63
2021/12/27 14:13:00;;;;;;;121.37;80.67;;;;;;;;;;4997262;28;20060;-63
2021/12/27 14:15:30;;;;;;;123.97;85.57;;;;;;;;;;5012366;28;20050;-63
2021/12/27 14:18:07;;;;;;;124.20;85.60;;;;;;;;;;5008509;28;20026;-63
2021/12/27 14:20:33;;;;;;;121.60;85.00;;;;;;;;;;5013787;28;20105;-63
2021/12/27 14:23:06;;;;;;;123.07;85.07;;;;;;;;;;5010239;28;20022;-63
2021/12/27 14:25:32;;;;;;;113.87;77.63;;;;;;;;;;5013914;28;20048;-63
2021/12/27 14:27:58;;;;;;;119.47;78.97;;;;;;;;;;5012830;28;20018;-63
2021/12/27 14:30:27;;;;;;;112.47;77.13;;;;;;;;;;5014410;28;20029;-63
2021/12/27 14:32:53;;;;;;;116.50;76.97;;;;;;;;;;5014151;28;20357;-64
2021/12/27 14:35:21;;;;;;;108.93;74.90;;;;;;;;;;5014705;28;20112;-63
2021/12/27 14:37:48;;;;;;;110.40;74.77;;;;;;;;;;5009390;28;20029;-63
2021/12/27 14:40:14;;;;;;;112.30;70.97;;;;;;;;;;5013446;28;20073;-64
2021/12/27 14:42:40;;;;;;;102.93;67.67;;;;;;;;;;5014046;28;20040;-63
2021/12/27 14:45:06;;;;;;;99.70;66.90;;;;;;;;;;5014342;28;20050;-63
2021/12/27 14:47:32;;;;;;;98.90;66.60;;;;;;;;;;5004181;28;20037;-63